Time;durP1;ratioP1;P1;durP2;ratioP2;P2;SDS_P1;SDS_P2;PMS_P1;PMS_P2;Temp;Humidity;BMP_temperature;BMP_pressure;BME280_temperature;BME280_humidity;BME280_pressure;Samples;Min_cycle;Max_cycle;Signal;HPM_P1;HPM_P2
2022/11/07 00:02:05;;;;;;;17.60;7.50;;;10.30;99.90;;;;;;5014167;28;20285;-76
2022/11/07 00:04:32;;;;;;;11.90;6.93;;;10.40;99.90;;;;;;5015070;28;20281;-76
2022/11/07 00:06:58;;;;;;;12.13;6.63;;;10.40;99.90;;;;;;5014069;28;20308;-76
2022/11/07 00:09:24;;;;;;;15.53;7.20;;;10.40;99.90;;;;;;5013915;28;20360;-76
2022/11/07 00:11:49;;;;;;;15.80;7.33;;;10.40;99.90;;;;;;4998472;28;20369;-76
2022/11/07 00:14:17;;;;;;;13.20;7.77;;;10.40;99.90;;;;;;5014496;28;20397;-76
2022/11/07 00:16:44;;;;;;;11.70;7.53;;;10.40;99.90;;;;;;5013905;28;20100;-76
2022/11/07 00:19:13;;;;;;;13.27;7.47;;;10.40;99.90;;;;;;5014114;28;20292;-75
2022/11/07 00:21:39;;;;;;;16.00;7.17;;;10.40;99.90;;;;;;5014063;28;20281;-76
2022/11/07 00:24:06;;;;;;;13.07;6.90;;;10.40;99.90;;;;;;4997380;28;20292;-75
2022/11/07 00:26:32;;;;;;;15.77;6.97;;;10.50;99.90;;;;;;5014622;28;20303;-76
2022/11/07 00:28:58;;;;;;;14.27;6.10;;;10.50;99.90;;;;;;4997329;28;20297;-75
2022/11/07 00:31:24;;;;;;;14.70;7.03;;;10.50;99.90;;;;;;5013374;28;20307;-76
2022/11/07 00:33:50;;;;;;;17.00;9.17;;;10.50;99.90;;;;;;4980575;28;20041;-76
2022/11/07 00:36:25;;;;;;;19.77;9.20;;;10.50;99.90;;;;;;4997378;28;20046;-77
2022/11/07 00:38:50;;;;;;;16.40;8.55;;;10.50;99.90;;;;;;5013701;28;20368;-76
2022/11/07 00:41:17;;;;;;;16.57;8.47;;;10.50;99.90;;;;;;5013678;28;20137;-76
2022/11/07 00:43:43;;;;;;;16.27;8.33;;;10.50;99.90;;;;;;5013383;28;20050;-76
2022/11/07 00:46:10;;;;;;;25.70;8.97;;;10.50;99.90;;;;;;5014352;28;20273;-76
2022/11/07 00:48:36;;;;;;;14.43;7.50;;;10.50;99.90;;;;;;5013172;28;20359;-77
2022/11/07 00:51:10;;;;;;;17.70;8.30;;;10.60;99.90;;;;;;5014901;28;20613;-77
2022/11/07 00:53:37;;;;;;;16.87;7.70;;;10.60;99.90;;;;;;5013063;28;20815;-77
2022/11/07 00:56:05;;;;;;;18.50;7.57;;;10.60;99.90;;;;;;5013257;28;20291;-77
2022/11/07 00:58:31;;;;;;;22.93;7.50;;;10.60;99.90;;;;;;5013277;28;20297;-77
2022/11/07 01:00:57;;;;;;;18.37;7.70;;;10.60;99.90;;;;;;4996783;28;20351;-77
2022/11/07 01:06:08;;;;;;;16.53;6.63;;;10.60;99.90;;;;;;5013191;28;20834;-77
2022/11/07 01:08:34;;;;;;;18.23;6.60;;;10.60;99.90;;;;;;5014049;28;20636;-76
2022/11/07 01:11:03;;;;;;;33.80;7.73;;;10.60;99.90;;;;;;4997405;28;20285;-76
2022/11/07 01:13:29;;;;;;;17.23;6.13;;;10.60;99.90;;;;;;5013979;28;20042;-76
2022/11/07 01:15:55;;;;;;;21.47;7.83;;;10.60;99.90;;;;;;5013950;28;20292;-76
2022/11/07 01:18:20;;;;;;;18.93;7.10;;;10.60;99.90;;;;;;5012912;28;20038;-76
2022/11/07 01:20:48;;;;;;;16.47;6.63;;;10.60;99.90;;;;;;5012989;28;20393;-76
2022/11/07 01:23:14;;;;;;;19.33;8.03;;;10.60;99.90;;;;;;5014499;28;20038;-76
2022/11/07 01:25:41;;;;;;;14.93;6.50;;;10.60;99.90;;;;;;5014431;28;20281;-76
2022/11/07 01:28:07;;;;;;;15.43;6.90;;;10.60;99.90;;;;;;5012765;28;20324;-76
2022/11/07 01:30:36;;;;;;;18.47;6.57;;;10.70;99.90;;;;;;5012707;28;20295;-76
2022/11/07 01:33:02;;;;;;;13.47;6.07;;;10.70;99.90;;;;;;5012370;28;20316;-76
2022/11/07 01:35:27;;;;;;;14.53;7.87;;;10.60;99.90;;;;;;5013780;28;20281;-76
2022/11/07 01:37:53;;;;;;;14.57;6.47;;;10.70;99.90;;;;;;5012559;28;20548;-77
2022/11/07 01:40:19;;;;;;;16.17;6.20;;;10.70;99.90;;;;;;5013784;28;20049;-76
2022/11/07 01:42:45;;;;;;;19.57;6.67;;;10.60;99.90;;;;;;5013695;28;20046;-77
2022/11/07 01:45:26;;;;;;;18.40;6.27;;;10.70;99.90;;;;;;5013771;28;20610;-77
2022/11/07 01:47:56;;;;;;;17.20;6.43;;;10.60;99.90;;;;;;5015407;28;20050;-76
2022/11/07 01:50:22;;;;;;;16.77;6.27;;;10.60;99.90;;;;;;5017635;28;20377;-77
2022/11/07 01:52:51;;;;;;;17.33;6.03;;;10.60;99.90;;;;;;5017477;28;20704;-77
2022/11/07 01:55:28;;;;;;;13.70;5.73;;;10.60;99.90;;;;;;5016542;28;20300;-76
2022/11/07 01:58:07;;;;;;;16.67;5.17;;;10.60;99.90;;;;;;5018013;28;20335;-77
2022/11/07 02:00:34;;;;;;;15.93;5.27;;;10.60;99.90;;;;;;5017401;28;20285;-76
2022/11/07 02:03:15;;;;;;;13.97;5.60;;;10.60;99.90;;;;;;5017367;28;20273;-77
2022/11/07 02:05:45;;;;;;;15.90;5.77;;;10.60;99.90;;;;;;5016428;28;20823;-76
2022/11/07 02:08:13;;;;;;;17.40;6.27;;;10.60;99.90;;;;;;5000815;28;20289;-76
2022/11/07 02:10:40;;;;;;;15.47;5.40;;;10.60;99.90;;;;;;5016005;28;20297;-76
2022/11/07 02:13:06;;;;;;;16.80;5.27;;;10.60;99.90;;;;;;5016365;28;20700;-77
2022/11/07 02:15:34;;;;;;;18.03;5.17;;;10.60;99.90;;;;;;4999907;28;20321;-76
2022/11/07 02:18:01;;;;;;;14.47;4.20;;;10.60;99.90;;;;;;5015838;28;20391;-76
2022/11/07 02:20:27;;;;;;;10.30;4.37;;;10.60;99.90;;;;;;5015889;28;20352;-76
2022/11/07 02:22:57;;;;;;;14.80;4.50;;;10.60;99.90;;;;;;5015932;28;20293;-76
2022/11/07 02:25:23;;;;;;;15.67;4.30;;;10.60;99.90;;;;;;5016032;28;20293;-76
2022/11/07 02:27:53;;;;;;;14.37;4.60;;;10.60;99.90;;;;;;5016910;28;20285;-76
2022/11/07 02:30:23;;;;;;;13.30;4.07;;;10.60;99.90;;;;;;5017253;28;20625;-76
2022/11/07 02:32:49;;;;;;;16.83;4.30;;;10.60;99.90;;;;;;5017084;28;20749;-76
2022/11/07 02:35:42;;;;;;;17.07;4.23;;;10.60;99.90;;;;;;5016418;28;20301;-76
2022/11/07 02:38:13;;;;;;;16.37;4.70;;;10.60;99.90;;;;;;5015633;28;20777;-76
2022/11/07 02:40:40;;;;;;;15.20;3.60;;;10.60;99.90;;;;;;5016036;28;20336;-76
2022/11/07 02:43:09;;;;;;;10.63;4.10;;;10.60;99.90;;;;;;5016623;28;20281;-76
2022/11/07 02:45:38;;;;;;;14.80;3.73;;;10.50;99.90;;;;;;5016252;28;20756;-76
2022/11/07 02:48:04;;;;;;;13.57;3.87;;;10.50;99.90;;;;;;5031792;28;20288;-76
2022/11/07 02:50:29;;;;;;;15.30;4.13;;;10.50;99.90;;;;;;4998780;28;20380;-77
2022/11/07 02:52:55;;;;;;;16.60;4.50;;;10.50;99.90;;;;;;4998695;28;20392;-77
2022/11/07 02:55:21;;;;;;;14.97;4.33;;;10.50;99.90;;;;;;5015448;28;20042;-76
2022/11/07 02:57:47;;;;;;;15.57;4.37;;;10.50;99.90;;;;;;5015472;28;20572;-76
2022/11/07 03:00:13;;;;;;;18.00;5.17;;;10.50;99.90;;;;;;4998191;28;20120;-77
2022/11/07 03:02:45;;;;;;;15.17;4.20;;;10.50;99.90;;;;;;4999017;28;20093;-76
2022/11/07 03:05:15;;;;;;;14.80;4.87;;;10.60;99.90;;;;;;5015545;28;20304;-76
2022/11/07 03:07:42;;;;;;;13.20;4.60;;;10.60;99.90;;;;;;5016294;28;20368;-76
2022/11/07 03:10:10;;;;;;;17.30;4.57;;;10.60;99.90;;;;;;5015040;28;20285;-76
2022/11/07 03:12:35;;;;;;;18.43;4.83;;;10.70;99.90;;;;;;5014941;28;20300;-76
2022/11/07 03:15:01;;;;;;;14.03;3.43;;;10.70;99.90;;;;;;5014882;28;20292;-77
2022/11/07 03:17:27;;;;;;;19.40;3.67;;;10.70;99.90;;;;;;5015065;28;20116;-76
2022/11/07 03:19:53;;;;;;;14.20;3.07;;;10.70;99.90;;;;;;5014755;28;20289;-77
2022/11/07 03:22:18;;;;;;;15.47;3.53;;;10.60;99.90;;;;;;5016479;28;20049;-76
2022/11/07 03:24:44;;;;;;;14.27;3.20;;;10.70;99.90;;;;;;5015946;28;20049;-76
2022/11/07 03:27:10;;;;;;;17.43;3.10;;;10.70;99.90;;;;;;5014655;28;20099;-76
2022/11/07 03:29:35;;;;;;;14.17;3.30;;;10.70;99.90;;;;;;5015838;28;20054;-77
2022/11/07 03:32:01;;;;;;;11.60;3.70;;;10.70;99.90;;;;;;5016271;28;20050;-77
2022/11/07 03:34:27;;;;;;;14.73;3.13;;;10.70;99.90;;;;;;5014474;28;20095;-77
2022/11/07 03:36:52;;;;;;;15.07;3.03;;;10.60;99.90;;;;;;5014503;28;20085;-77
2022/11/07 03:39:18;;;;;;;13.00;3.03;;;10.60;99.90;;;;;;4999150;28;20110;-77
2022/11/07 03:41:44;;;;;;;12.13;3.33;;;10.60;99.90;;;;;;5016120;28;20485;-77
2022/11/07 03:44:09;;;;;;;16.03;3.07;;;10.60;99.90;;;;;;5014529;28;20058;-77
2022/11/07 03:46:35;;;;;;;13.23;3.07;;;10.60;99.90;;;;;;5015479;28;20046;-77
2022/11/07 03:49:01;;;;;;;16.00;3.93;;;10.50;99.90;;;;;;5014329;28;20056;-77
2022/11/07 03:51:26;;;;;;;13.63;3.00;;;10.50;99.90;;;;;;5014192;28;20057;-77
2022/11/07 03:53:52;;;;;;;17.63;4.00;;;10.50;99.90;;;;;;4998648;28;20429;-76
2022/11/07 03:56:18;;;;;;;13.70;3.73;;;10.50;99.90;;;;;;4997881;28;20050;-76
2022/11/07 03:58:43;;;;;;;14.83;3.23;;;10.50;99.90;;;;;;5015298;28;20505;-76
2022/11/07 04:01:10;;;;;;;19.67;3.70;;;10.50;99.90;;;;;;5015205;28;20046;-76
2022/11/07 04:03:36;;;;;;;14.70;3.30;;;10.50;99.90;;;;;;5015143;28;20088;-76
2022/11/07 04:06:01;;;;;;;15.90;3.80;;;10.50;99.90;;;;;;5015569;28;20669;-77
2022/11/07 04:08:27;;;;;;;15.63;4.23;;;10.60;99.90;;;;;;4998560;28;20058;-76
2022/11/07 04:10:53;;;;;;;17.77;4.27;;;10.50;99.90;;;;;;5013333;28;20137;-76
2022/11/07 04:19:02;;;;;;;14.73;3.28;;;10.60;99.90;;;;;;5014236;28;20281;-77
2022/11/07 04:21:28;;;;;;;12.33;3.50;;;10.60;99.90;;;;;;5013942;28;20072;-77
2022/11/07 04:23:53;;;;;;;16.57;3.40;;;10.70;99.90;;;;;;5013625;28;20438;-77
2022/11/07 04:29:03;;;;;;;15.17;3.87;;;10.70;99.90;;;;;;5013986;28;20065;-77
2022/11/07 04:31:29;;;;;;;17.47;4.53;;;10.70;99.90;;;;;;5014592;28;20288;-77
2022/11/07 04:33:55;;;;;;;16.90;4.23;;;10.70;99.90;;;;;;5013383;28;20050;-76
2022/11/07 04:36:20;;;;;;;20.13;4.57;;;10.70;99.90;;;;;;5014785;28;20046;-76
2022/11/07 04:38:46;;;;;;;20.67;4.67;;;10.70;99.90;;;;;;4997269;28;20053;-76
2022/11/07 04:41:21;;;;;;;21.83;4.57;;;10.70;99.90;;;;;;4997067;28;20088;-76
2022/11/07 04:43:47;;;;;;;17.08;4.35;;;10.70;99.90;;;;;;5014481;28;20041;-76
2022/11/07 04:46:14;;;;;;;19.50;4.63;;;10.80;99.90;;;;;;5014258;28;20104;-76
2022/11/07 04:48:39;;;;;;;18.90;4.60;;;10.80;99.90;;;;;;5013478;28;20438;-76
2022/11/07 04:51:05;;;;;;;17.47;4.33;;;10.70;99.90;;;;;;5013203;28;20796;-77
2022/11/07 04:53:31;;;;;;;18.10;5.23;;;10.70;99.90;;;;;;5013072;28;20128;-77
2022/11/07 04:55:56;;;;;;;21.13;4.50;;;10.70;99.90;;;;;;5014600;28;20053;-77
2022/11/07 04:58:22;;;;;;;20.20;5.23;;;10.70;99.90;;;;;;5013566;28;20147;-77
2022/11/07 05:00:48;;;;;;;17.03;4.43;;;10.70;99.90;;;;;;4997188;28;20050;-77
2022/11/07 05:03:13;;;;;;;18.73;5.17;;;10.60;99.90;;;;;;5014473;28;20053;-77
2022/11/07 05:05:39;;;;;;;17.93;4.57;;;10.60;99.90;;;;;;5013027;28;20057;-76
2022/11/07 05:08:05;;;;;;;17.03;4.67;;;10.60;99.90;;;;;;4996835;28;20072;-78
2022/11/07 05:10:31;;;;;;;16.07;4.30;;;10.60;99.90;;;;;;5013920;28;20133;-77
2022/11/07 05:12:57;;;;;;;12.80;4.30;;;10.50;99.90;;;;;;5014002;28;20041;-76
2022/11/07 05:15:22;;;;;;;17.07;4.80;;;10.50;99.90;;;;;;5013333;28;20046;-77
2022/11/07 05:17:48;;;;;;;16.27;4.20;;;10.50;99.90;;;;;;5014295;28;20065;-76
2022/11/07 05:20:30;;;;;;;19.60;5.13;;;10.50;99.90;;;;;;5013223;28;20486;-76
2022/11/07 05:23:13;;;;;;;17.37;4.37;;;10.50;99.90;;;;;;5014244;28;20049;-76
2022/11/07 05:25:48;;;;;;;17.50;4.53;;;10.50;99.90;;;;;;5013225;28;20346;-76
2022/11/07 05:28:18;;;;;;;18.48;4.80;;;10.50;99.90;;;;;;5014190;28;20285;-76
2022/11/07 05:30:44;;;;;;;20.80;4.63;;;10.50;99.90;;;;;;4996440;28;20050;-76
2022/11/07 05:33:12;;;;;;;21.10;4.43;;;10.50;99.90;;;;;;5012776;28;20331;-77
2022/11/07 05:35:38;;;;;;;17.13;4.90;;;10.50;99.90;;;;;;5012627;28;20672;-77
2022/11/07 05:38:04;;;;;;;16.70;4.03;;;10.60;99.90;;;;;;5013759;28;20281;-77
2022/11/07 05:40:31;;;;;;;23.83;4.43;;;10.60;99.90;;;;;;5012724;28;20633;-76
2022/11/07 05:43:05;;;;;;;19.50;4.57;;;10.60;99.90;;;;;;5013755;28;20331;-76
2022/11/07 05:45:32;;;;;;;13.40;3.85;;;10.60;99.90;;;;;;5014573;28;20303;-77
2022/11/07 05:47:59;;;;;;;17.73;4.07;;;10.60;99.90;;;;;;4996598;28;20050;-76
2022/11/07 05:50:26;;;;;;;17.37;3.90;;;10.60;99.90;;;;;;5011974;28;20297;-76
2022/11/07 05:52:53;;;;;;;15.17;3.50;;;10.60;99.90;;;;;;5013599;28;20304;-76
2022/11/07 05:55:19;;;;;;;18.60;3.90;;;10.60;99.90;;;;;;5012451;28;20289;-76
2022/11/07 05:57:45;;;;;;;18.93;4.10;;;10.60;99.90;;;;;;4996085;28;20285;-78
2022/11/07 06:00:11;;;;;;;13.17;4.33;;;10.70;99.90;;;;;;5014200;28;20277;-78
2022/11/07 06:02:40;;;;;;;15.87;4.67;;;10.70;99.90;;;;;;5014112;28;20586;-76
2022/11/07 06:05:06;;;;;;;19.37;4.40;;;10.70;99.90;;;;;;5013532;28;20288;-76
2022/11/07 06:07:36;;;;;;;18.37;4.37;;;10.70;99.90;;;;;;4996605;28;20053;-76
2022/11/07 06:10:07;;;;;;;14.33;4.57;;;10.70;99.90;;;;;;5012554;28;20289;-76
2022/11/07 06:12:33;;;;;;;15.07;4.27;;;10.70;99.90;;;;;;5012594;28;20307;-76
2022/11/07 06:14:58;;;;;;;17.37;4.20;;;10.70;99.90;;;;;;5011997;28;20768;-76
2022/11/07 06:17:24;;;;;;;17.03;4.37;;;10.70;99.90;;;;;;5012228;28;20046;-77
2022/11/07 06:19:50;;;;;;;19.77;4.37;;;10.70;99.90;;;;;;5013093;28;20556;-76
2022/11/07 06:22:15;;;;;;;21.20;4.93;;;10.70;99.90;;;;;;5013559;28;20046;-76
2022/11/07 06:24:41;;;;;;;17.23;4.30;;;10.70;99.90;;;;;;4979956;28;20176;-75
2022/11/07 06:27:07;;;;;;;17.13;4.50;;;10.70;99.90;;;;;;5012222;28;20058;-75
2022/11/07 06:29:32;;;;;;;17.07;4.70;;;10.70;99.90;;;;;;5012536;28;20045;-76
2022/11/07 06:31:58;;;;;;;18.53;4.17;;;10.70;99.90;;;;;;5028776;28;20053;-75
2022/11/07 06:34:24;;;;;;;13.03;4.10;;;10.70;99.90;;;;;;5013011;28;20046;-76
2022/11/07 06:36:54;;;;;;;19.17;4.43;;;10.70;99.90;;;;;;5016172;28;20107;-77
2022/11/07 06:39:20;;;;;;;14.37;4.43;;;10.70;99.90;;;;;;5015792;28;20038;-78
2022/11/07 06:41:47;;;;;;;16.93;5.30;;;10.60;99.90;;;;;;5016738;28;20292;-76
2022/11/07 06:44:13;;;;;;;18.13;5.60;;;10.70;99.90;;;;;;5017293;28;20285;-77
2022/11/07 06:46:39;;;;;;;15.70;5.47;;;10.70;99.90;;;;;;5016569;28;20285;-76
2022/11/07 06:49:05;;;;;;;18.03;6.23;;;10.60;99.90;;;;;;5016886;28;20042;-76
2022/11/07 06:51:30;;;;;;;16.77;5.97;;;10.70;99.90;;;;;;5017092;28;20097;-78
2022/11/07 06:53:56;;;;;;;27.43;6.90;;;10.70;99.90;;;;;;5015301;28;20054;-75
2022/11/07 06:56:23;;;;;;;23.90;7.53;;;10.70;99.90;;;;;;5016455;28;20054;-75
2022/11/07 06:58:48;;;;;;;17.17;6.03;;;10.70;99.90;;;;;;4999395;28;20333;-77
2022/11/07 07:01:15;;;;;;;25.53;8.83;;;10.70;99.90;;;;;;5016074;28;20335;-76
2022/11/07 07:03:41;;;;;;;26.97;8.07;;;10.70;99.90;;;;;;5016313;28;20049;-75
2022/11/07 07:06:12;;;;;;;23.57;8.07;;;10.70;99.90;;;;;;5015087;28;20289;-75
2022/11/07 07:08:38;;;;;;;26.87;8.13;;;10.70;99.90;;;;;;5016753;28;20276;-75
2022/11/07 07:11:06;;;;;;;26.80;7.87;;;10.70;99.90;;;;;;5014970;28;20788;-75
2022/11/07 07:13:33;;;;;;;21.73;7.87;;;10.70;99.90;;;;;;5016551;28;20301;-75
2022/11/07 07:15:59;;;;;;;26.27;8.67;;;10.80;99.90;;;;;;5015456;28;20295;-76
2022/11/07 07:18:25;;;;;;;26.80;10.03;;;10.80;99.90;;;;;;5016064;28;20288;-76
2022/11/07 07:20:54;;;;;;;22.87;8.67;;;10.80;99.90;;;;;;5016022;28;20276;-76
2022/11/07 07:23:20;;;;;;;23.57;9.30;;;10.80;99.90;;;;;;5016471;28;20277;-75
2022/11/07 07:25:46;;;;;;;19.47;9.10;;;10.80;99.90;;;;;;5016469;28;20411;-75
2022/11/07 07:28:12;;;;;;;26.00;9.07;;;10.80;99.90;;;;;;5016401;28;20285;-75
2022/11/07 07:30:38;;;;;;;28.50;10.27;;;10.80;99.90;;;;;;5015745;28;20296;-75
2022/11/07 07:33:03;;;;;;;28.93;9.53;;;10.80;99.90;;;;;;5015605;28;20125;-75
2022/11/07 07:35:29;;;;;;;24.63;10.10;;;10.80;99.90;;;;;;5015734;28;20053;-75
2022/11/07 07:37:55;;;;;;;26.47;9.33;;;10.80;99.90;;;;;;5014707;28;20081;-75
2022/11/07 07:40:21;;;;;;;24.33;10.10;;;10.80;99.90;;;;;;5015622;28;20054;-75
2022/11/07 07:42:47;;;;;;;25.73;9.13;;;10.80;99.90;;;;;;5014632;28;20063;-75
2022/11/07 07:45:14;;;;;;;21.00;9.27;;;10.80;99.90;;;;;;5015485;28;20501;-75
2022/11/07 07:47:39;;;;;;;25.83;8.30;;;10.80;99.90;;;;;;5015383;28;20049;-75
2022/11/07 07:50:07;;;;;;;27.83;9.20;;;10.80;99.90;;;;;;5015530;28;20319;-75
2022/11/07 07:52:33;;;;;;;25.37;9.77;;;10.70;99.90;;;;;;5015895;28;20058;-75
2022/11/07 07:54:59;;;;;;;24.00;9.73;;;10.80;99.90;;;;;;5015193;28;20296;-75
2022/11/07 07:57:25;;;;;;;28.13;9.07;;;10.80;99.90;;;;;;5015853;28;20053;-75
2022/11/07 07:59:51;;;;;;;21.67;8.97;;;10.80;99.90;;;;;;5016044;28;20384;-75
2022/11/07 08:02:16;;;;;;;31.00;11.27;;;10.80;99.90;;;;;;5015442;28;20213;-75
2022/11/07 08:04:43;;;;;;;27.63;10.40;;;10.80;99.90;;;;;;5014991;28;20493;-75
2022/11/07 08:07:09;;;;;;;30.77;10.63;;;10.80;99.90;;;;;;5015177;28;20046;-75
2022/11/07 08:09:35;;;;;;;29.63;9.57;;;10.80;99.90;;;;;;5015061;28;20280;-75
2022/11/07 08:12:07;;;;;;;32.37;10.70;;;10.90;99.90;;;;;;5015102;28;20287;-75
2022/11/07 08:14:33;;;;;;;30.00;10.07;;;10.90;99.90;;;;;;5013958;28;20308;-75
2022/11/07 08:16:59;;;;;;;25.90;9.60;;;10.90;99.90;;;;;;5015461;28;20304;-75
2022/11/07 08:19:25;;;;;;;31.87;9.83;;;10.90;99.90;;;;;;5015675;28;20053;-75
2022/11/07 08:21:51;;;;;;;25.47;9.20;;;10.90;99.90;;;;;;5014834;28;20285;-75
2022/11/07 08:24:17;;;;;;;32.50;10.20;;;11.00;99.90;;;;;;5013868;28;20296;-75
2022/11/07 08:26:43;;;;;;;30.43;9.63;;;11.00;99.90;;;;;;5014779;28;20756;-75
2022/11/07 08:29:09;;;;;;;28.50;8.40;;;11.00;99.90;;;;;;5013757;28;20057;-75
2022/11/07 08:31:35;;;;;;;31.23;9.53;;;11.00;99.90;;;;;;5014385;28;20077;-75
2022/11/07 08:34:01;;;;;;;26.47;9.23;;;11.00;99.90;;;;;;5013335;28;20316;-75
2022/11/07 08:36:27;;;;;;;25.70;9.10;;;11.00;99.90;;;;;;5014904;28;20285;-75
2022/11/07 08:38:53;;;;;;;25.93;7.97;;;11.10;99.90;;;;;;5014562;28;20041;-75
2022/11/07 08:41:19;;;;;;;25.87;8.40;;;11.10;99.90;;;;;;5015313;28;20378;-76
2022/11/07 08:43:45;;;;;;;28.20;8.17;;;11.10;99.90;;;;;;5013082;28;20299;-76
2022/11/07 08:46:11;;;;;;;27.17;8.00;;;11.10;99.90;;;;;;5014534;28;20277;-75
2022/11/07 08:48:39;;;;;;;21.73;8.87;;;11.20;99.90;;;;;;5014389;28;20327;-75
2022/11/07 08:51:05;;;;;;;27.20;8.10;;;11.20;99.90;;;;;;5014485;28;20104;-75
2022/11/07 08:53:31;;;;;;;25.27;8.13;;;11.20;99.90;;;;;;5014308;28;20337;-75
2022/11/07 08:56:05;;;;;;;23.93;8.70;;;11.20;99.90;;;;;;5015096;28;20347;-76
2022/11/07 08:58:32;;;;;;;27.17;8.48;;;11.30;99.90;;;;;;5029436;28;20288;-75
2022/11/07 09:00:58;;;;;;;26.23;7.70;;;11.20;99.90;;;;;;5014260;28;20077;-75
2022/11/07 09:03:24;;;;;;;27.93;7.33;;;11.30;99.90;;;;;;5014332;28;20661;-75
2022/11/07 09:05:50;;;;;;;22.40;7.57;;;11.30;99.90;;;;;;5014111;28;20474;-75
2022/11/07 09:08:16;;;;;;;20.10;6.63;;;11.40;99.90;;;;;;5013808;28;20288;-75
2022/11/07 09:10:42;;;;;;;20.50;6.47;;;11.40;99.90;;;;;;5012887;28;20042;-75
2022/11/07 09:13:07;;;;;;;19.27;6.93;;;11.40;99.90;;;;;;5013715;28;20304;-75
2022/11/07 09:15:33;;;;;;;20.53;6.77;;;11.40;99.90;;;;;;5013351;28;20053;-76
2022/11/07 09:18:05;;;;;;;24.67;6.73;;;11.40;99.90;;;;;;5014764;28;20049;-75
2022/11/07 09:20:33;;;;;;;22.17;6.53;;;11.50;99.90;;;;;;5014206;28;20049;-75
2022/11/07 09:22:59;;;;;;;24.73;7.10;;;11.50;99.90;;;;;;5012707;28;20754;-75
2022/11/07 09:25:25;;;;;;;18.43;7.20;;;11.50;99.90;;;;;;5012725;28;20276;-75
2022/11/07 09:27:51;;;;;;;17.80;6.27;;;11.50;99.90;;;;;;5013863;28;20284;-75
2022/11/07 09:30:18;;;;;;;20.13;6.13;;;11.50;99.90;;;;;;5013880;28;20279;-75
2022/11/07 09:32:44;;;;;;;18.23;6.27;;;11.50;99.90;;;;;;5013770;28;20431;-75
2022/11/07 09:35:10;;;;;;;28.73;7.43;;;11.50;99.90;;;;;;5014358;28;20327;-75
2022/11/07 09:37:39;;;;;;;24.53;6.53;;;11.50;99.90;;;;;;5013767;28;20049;-75
2022/11/07 09:40:20;;;;;;;24.63;6.90;;;11.60;99.90;;;;;;5013028;28;20284;-75
2022/11/07 09:42:57;;;;;;;18.30;6.43;;;11.60;99.90;;;;;;5012858;28;20356;-75
2022/11/07 09:45:23;;;;;;;23.07;6.03;;;11.60;99.90;;;;;;5013572;28;20289;-75
2022/11/07 09:47:59;;;;;;;26.40;6.97;;;11.70;99.90;;;;;;5014111;28;20356;-75
2022/11/07 09:50:41;;;;;;;18.20;5.77;;;11.70;99.90;;;;;;5013866;28;20054;-75
2022/11/07 09:53:16;;;;;;;20.73;6.20;;;11.70;99.90;;;;;;5012509;28;20355;-75
2022/11/07 09:55:48;;;;;;;;;;;11.70;99.90;;;;;;5013398;28;20295;-74
2022/11/07 09:58:31;;;;;;;19.83;6.33;;;11.80;99.90;;;;;;5013528;28;19928;-74
2022/11/07 10:01:04;;;;;;;19.83;5.77;;;11.80;99.90;;;;;;5014029;28;20269;-74
2022/11/07 10:03:35;;;;;;;18.30;5.40;;;11.80;99.90;;;;;;4996204;28;20281;-75
2022/11/07 10:06:27;;;;;;;18.43;5.43;;;11.90;99.90;;;;;;5013575;28;20273;-74
2022/11/07 10:09:20;;;;;;;21.20;5.20;;;11.90;99.90;;;;;;5014422;28;20273;-74
2022/11/07 10:11:46;;;;;;;20.67;5.70;;;11.90;99.90;;;;;;5017100;28;20297;-74
2022/11/07 10:14:30;;;;;;;20.50;5.37;;;11.90;99.90;;;;;;5017393;28;20301;-74
2022/11/07 10:16:59;;;;;;;21.53;4.37;;;11.90;99.90;;;;;;5017772;28;20456;-75
2022/11/07 10:19:30;;;;;;;17.33;4.93;;;11.90;99.90;;;;;;5015954;28;20770;-74
2022/11/07 10:22:11;;;;;;;18.23;4.20;;;11.90;99.90;;;;;;5015742;28;20313;-74
2022/11/07 10:24:53;;;;;;;22.63;5.60;;;12.00;99.90;;;;;;5016094;28;20775;-74
2022/11/07 10:27:21;;;;;;;16.30;4.53;;;12.00;99.90;;;;;;5017543;28;20284;-74
2022/11/07 10:29:51;;;;;;;15.50;4.20;;;12.10;99.90;;;;;;5017030;28;20277;-74
2022/11/07 10:32:35;;;;;;;17.43;4.93;;;12.10;99.90;;;;;;5016300;28;20292;-74
2022/11/07 10:35:03;;;;;;;16.27;4.40;;;12.10;99.90;;;;;;5016766;28;20602;-74
2022/11/07 10:37:29;;;;;;;18.23;4.83;;;12.10;99.90;;;;;;5016861;28;20292;-74
2022/11/07 10:39:55;;;;;;;17.03;4.37;;;12.20;99.90;;;;;;5016768;28;20376;-74
2022/11/07 10:42:28;;;;;;;20.93;5.13;;;12.20;99.90;;;;;;4999420;28;20363;-74
2022/11/07 10:44:55;;;;;;;16.57;4.43;;;12.20;99.90;;;;;;5015726;28;20137;-74
2022/11/07 10:47:24;;;;;;;17.97;4.83;;;12.20;99.90;;;;;;5017490;28;20677;-74
2022/11/07 10:49:58;;;;;;;21.10;5.33;;;12.20;99.90;;;;;;5015298;28;20289;-74
2022/11/07 10:52:25;;;;;;;19.07;4.33;;;12.20;99.90;;;;;;5032813;28;20288;-74
2022/11/07 10:55:07;;;;;;;14.83;4.03;;;12.30;99.90;;;;;;5000140;28;20320;-75
2022/11/07 10:57:34;;;;;;;16.27;4.40;;;12.30;99.90;;;;;;5016168;28;20765;-74
2022/11/07 11:00:01;;;;;;;20.73;5.33;;;12.30;99.90;;;;;;5016327;28;20291;-74
2022/11/07 11:02:31;;;;;;;17.83;5.30;;;12.30;99.90;;;;;;5016886;28;20297;-74
2022/11/07 11:04:59;;;;;;;16.17;5.00;;;12.30;99.90;;;;;;5016601;28;20289;-74
2022/11/07 11:07:34;;;;;;;14.07;3.90;;;12.40;99.90;;;;;;5016262;28;20331;-74
2022/11/07 11:10:00;;;;;;;21.85;4.30;;;12.40;99.90;;;;;;5016813;28;20309;-74
2022/11/07 11:12:29;;;;;;;14.60;4.50;;;12.40;99.90;;;;;;5016140;28;20486;-74
2022/11/07 11:15:04;;;;;;;18.00;5.50;;;12.40;99.90;;;;;;5016067;28;20041;-74
2022/11/07 11:17:30;;;;;;;15.77;4.57;;;12.40;99.90;;;;;;5015935;28;20292;-74
2022/11/07 11:19:55;;;;;;;21.20;5.33;;;12.40;99.90;;;;;;5014931;28;20470;-75
2022/11/07 11:22:24;;;;;;;22.93;5.50;;;12.40;99.90;;;;;;4998119;28;20053;-75
2022/11/07 11:25:22;;;;;;;20.07;5.93;;;12.40;99.90;;;;;;5015886;28;20042;-74
2022/11/07 11:28:05;;;;;;;20.27;5.57;;;12.30;99.90;;;;;;4997919;28;20308;-75
2022/11/07 11:30:34;;;;;;;22.17;5.60;;;12.40;99.90;;;;;;5015202;28;20372;-74
2022/11/07 11:33:12;;;;;;;18.33;5.73;;;12.40;99.90;;;;;;5014444;28;20301;-74
2022/11/07 11:36:10;;;;;;;19.63;6.27;;;12.40;99.90;;;;;;5016605;28;20281;-74
2022/11/07 11:38:37;;;;;;;15.43;4.93;;;12.40;99.90;;;;;;5014611;28;20301;-74
2022/11/07 11:41:20;;;;;;;20.00;5.83;;;12.50;99.90;;;;;;5014507;28;20277;-75
2022/11/07 11:44:10;;;;;;;21.57;6.50;;;12.50;99.90;;;;;;5014446;28;20332;-74
2022/11/07 11:46:44;;;;;;;12.73;4.87;;;12.60;99.90;;;;;;5015624;28;20277;-75
2022/11/07 11:49:41;;;;;;;19.20;5.20;;;12.60;99.90;;;;;;4999063;28;20288;-75
2022/11/07 11:52:17;;;;;;;19.37;5.57;;;12.60;99.90;;;;;;5015239;28;20289;-75
2022/11/07 11:54:44;;;;;;;18.73;5.53;;;12.60;99.90;;;;;;5015635;28;20327;-75
2022/11/07 11:57:25;;;;;;;15.73;4.97;;;12.60;99.90;;;;;;5016099;28;20285;-74
2022/11/07 12:00:14;;;;;;;13.37;5.23;;;12.70;99.90;;;;;;5015322;28;20277;-74
2022/11/07 12:03:08;;;;;;;15.63;4.77;;;12.70;99.90;;;;;;5015141;28;20629;-75
2022/11/07 12:05:58;;;;;;;17.13;4.87;;;12.70;99.90;;;;;;5014014;28;20300;-75
2022/11/07 12:08:48;;;;;;;14.67;5.07;;;12.70;99.90;;;;;;5015250;28;20272;-74
2022/11/07 12:11:32;;;;;;;16.13;4.87;;;12.80;99.90;;;;;;5014483;28;20312;-75
2022/11/07 12:14:31;;;;;;;18.67;4.87;;;12.80;99.90;;;;;;5014178;28;20304;-75
2022/11/07 12:17:12;;;;;;;16.00;4.13;;;12.80;99.90;;;;;;5014599;28;20633;-75
2022/11/07 12:19:53;;;;;;;12.93;3.77;;;12.90;99.90;;;;;;5015758;28;20626;-74
2022/11/07 12:22:46;;;;;;;14.97;3.87;;;12.90;99.90;;;;;;5030747;28;20411;-75
2022/11/07 12:25:36;;;;;;;16.33;4.00;;;12.90;99.90;;;;;;5013633;28;20340;-75
2022/11/07 12:28:20;;;;;;;14.50;4.10;;;12.90;99.90;;;;;;5015115;28;20279;-75
2022/11/07 12:31:15;;;;;;;14.00;4.38;;;12.90;99.90;;;;;;5013875;28;20289;-75
2022/11/07 12:34:11;;;;;;;18.90;4.80;;;12.90;99.90;;;;;;5012997;28;20045;-75
2022/11/07 12:36:44;;;;;;;16.57;5.50;;;13.00;99.90;;;;;;5015021;28;20303;-75
2022/11/07 12:39:19;;;;;;;18.60;4.40;;;12.90;99.90;;;;;;4997627;28;20284;-75
2022/11/07 12:42:17;;;;;;;16.02;4.10;;;13.00;99.90;;;;;;5013325;28;20293;-75
2022/11/07 12:45:07;;;;;;;16.37;4.83;;;12.90;99.90;;;;;;5005164;28;20132;-74
2022/11/07 12:47:44;;;;;;;12.40;4.37;;;12.90;99.90;;;;;;4996640;28;20299;-74
2022/11/07 12:50:28;;;;;;;19.20;5.67;;;12.90;99.90;;;;;;5013326;28;20351;-75
2022/11/07 12:53:12;;;;;;;17.43;5.07;;;12.80;99.90;;;;;;5014339;28;20297;-75
2022/11/07 12:55:43;;;;;;;18.63;4.97;;;12.80;99.90;;;;;;5014136;28;20752;-75
2022/11/07 12:58:20;;;;;;;17.63;5.10;;;12.90;99.90;;;;;;5030451;28;20292;-75
2022/11/07 13:00:47;;;;;;;17.70;5.00;;;12.90;99.90;;;;;;5014561;28;20276;-75